Time;durP1;ratioP1;P1;durP2;ratioP2;P2;SDS_P1;SDS_P2;PMS_P1;PMS_P2;Temp;Humidity;BMP_temperature;BMP_pressure;BME280_temperature;BME280_humidity;BME280_pressure;Samples;Min_cycle;Max_cycle;Signal;HPM_P1;HPM_P2
2021/07/28 00:02:28;;;;;;;23.63;8.43;;;17.90;99.90;;;;;;5060912;28;20048;-84
2021/07/28 00:05:00;;;;;;;21.15;9.25;;;17.90;99.90;;;;;;5079776;28;20044;-84
2021/07/28 00:07:30;;;;;;;19.83;8.93;;;18.00;99.90;;;;;;5062116;28;20065;-83
2021/07/28 00:10:11;;;;;;;26.00;8.75;;;18.00;99.90;;;;;;5063694;28;20051;-83
2021/07/28 00:12:41;;;;;;;27.45;8.98;;;18.00;99.90;;;;;;5092721;28;20048;-84
2021/07/28 00:15:12;;;;;;;25.52;8.98;;;18.00;99.90;;;;;;5071916;28;20048;-84
2021/07/28 00:17:52;;;;;;;21.63;10.25;;;18.00;99.90;;;;;;5078162;28;20048;-84
2021/07/28 00:23:14;;;;;;;24.55;8.38;;;18.00;99.90;;;;;;5100563;28;20052;-83
2021/07/28 00:25:47;;;;;;;21.77;6.78;;;17.90;99.90;;;;;;5081488;28;20055;-85
2021/07/28 00:28:25;;;;;;;19.60;7.95;;;17.80;99.90;;;;;;5062562;28;20064;-84
2021/07/28 00:31:01;;;;;;;22.50;7.55;;;17.80;99.90;;;;;;5081238;28;20051;-84
2021/07/28 00:33:31;;;;;;;22.55;8.30;;;17.70;99.90;;;;;;5078648;28;20235;-84
2021/07/28 00:36:22;;;;;;;21.17;7.80;;;17.70;99.90;;;;;;5069181;28;20059;-83
2021/07/28 00:38:53;;;;;;;19.13;7.63;;;17.60;99.90;;;;;;5100366;28;20048;-84
2021/07/28 00:41:24;;;;;;;18.88;7.32;;;17.60;99.90;;;;;;5104945;28;20044;-85
2021/07/28 00:44:00;;;;;;;23.70;8.27;;;17.60;99.90;;;;;;5090500;28;20044;-83
2021/07/28 00:46:40;;;;;;;28.17;9.48;;;17.50;99.90;;;;;;5100528;28;20048;-83
2021/07/28 00:49:11;;;;;;;27.27;9.82;;;17.50;99.90;;;;;;5066945;28;20787;-83
2021/07/28 00:51:45;;;;;;;21.60;9.10;;;17.50;99.90;;;;;;5082234;28;20067;-83
2021/07/28 00:54:13;;;;;;;23.05;8.27;;;17.50;99.90;;;;;;5083329;28;20376;-83
2021/07/28 00:56:46;;;;;;;17.60;8.23;;;17.50;99.90;;;;;;5068558;28;20052;-84
2021/07/28 00:59:16;;;;;;;18.48;8.98;;;16.90;99.90;;;;;;5065645;28;20040;-84
2021/07/28 01:01:52;;;;;;;16.80;6.65;;;17.60;99.90;;;;;;5094387;28;20055;-85
2021/07/28 01:04:33;;;;;;;19.92;8.20;;;17.60;99.90;;;;;;5084291;28;20126;-84
2021/07/28 01:07:03;;;;;;;23.45;7.28;;;17.60;99.90;;;;;;5066900;28;20044;-85
2021/07/28 01:09:33;;;;;;;20.73;7.70;;;17.60;99.90;;;;;;5116411;28;20052;-83
2021/07/28 01:12:09;;;;;;;21.80;7.43;;;17.60;99.90;;;;;;5086283;28;20303;-84
2021/07/28 01:14:44;;;;;;;17.27;7.68;;;17.60;99.90;;;;;;5089276;28;20054;-84
2021/07/28 01:17:20;;;;;;;16.65;8.48;;;17.60;99.90;;;;;;5106375;28;20047;-85
2021/07/28 01:20:03;;;;;;;19.58;7.45;;;17.60;99.90;;;;;;5117906;28;20051;-84
2021/07/28 01:22:34;;;;;;;21.58;9.02;;;16.90;99.90;;;;;;5067119;28;20056;-86
2021/07/28 01:25:10;;;;;;;23.10;8.38;;;17.60;99.90;;;;;;5062531;28;20048;-84
2021/07/28 01:27:40;;;;;;;17.52;7.70;;;17.60;99.90;;;;;;5082449;28;20044;-84
2021/07/28 01:30:16;;;;;;;20.38;9.13;;;17.60;99.90;;;;;;5065283;28;20048;-85
2021/07/28 01:32:47;;;;;;;26.13;8.38;;;17.60;99.90;;;;;;5066106;28;20055;-84
2021/07/28 01:35:21;;;;;;;29.80;8.90;;;17.60;99.90;;;;;;5093871;28;20044;-84
2021/07/28 01:37:51;;;;;;;22.90;7.45;;;17.60;99.90;;;;;;5073485;28;20086;-84
2021/07/28 01:40:20;;;;;;;17.70;6.47;;;17.70;99.90;;;;;;5062490;28;20327;-86
2021/07/28 01:42:51;;;;;;;;;;;17.70;99.90;;;;;;5063612;28;20499;-84
2021/07/28 01:45:19;;;;;;;21.92;8.25;;;17.70;99.90;;;;;;5064772;28;19931;-85
2021/07/28 01:47:48;;;;;;;19.98;7.28;;;17.70;99.90;;;;;;5063595;28;20055;-84
2021/07/28 01:50:18;;;;;;;17.77;7.97;;;17.70;99.90;;;;;;5081720;28;20066;-83
2021/07/28 01:52:48;;;;;;;20.67;8.35;;;18.20;99.90;;;;;;5079665;28;20052;-84
2021/07/28 01:55:19;;;;;;;27.05;9.57;;;17.70;99.90;;;;;;5100180;28;20047;-84
2021/07/28 01:57:55;;;;;;;19.25;8.32;;;17.70;99.90;;;;;;5069478;28;20070;-84
2021/07/28 02:00:26;;;;;;;;;;;17.70;99.90;;;;;;5076032;28;20052;-84
2021/07/28 02:03:05;;;;;;;;;;;17.70;99.90;;;;;;5080208;28;19920;-85
2021/07/28 02:05:40;;;;;;;19.30;7.88;;;17.70;99.90;;;;;;5092936;28;19920;-84
2021/07/28 02:08:16;;;;;;;19.70;8.73;;;17.70;99.90;;;;;;5089046;28;20043;-84
2021/07/28 02:10:49;;;;;;;18.63;7.38;;;17.70;99.90;;;;;;5080196;28;20044;-85
2021/07/28 02:13:20;;;;;;;25.27;10.23;;;17.70;99.90;;;;;;5081571;28;20044;-84
2021/07/28 02:15:50;;;;;;;21.20;8.82;;;17.70;99.90;;;;;;5077994;28;20051;-85
2021/07/28 02:18:19;;;;;;;18.95;9.27;;;17.70;99.90;;;;;;5062547;28;20055;-84
2021/07/28 02:20:52;;;;;;;17.77;9.32;;;17.70;99.90;;;;;;5079032;28;20048;-84
2021/07/28 02:23:20;;;;;;;19.38;9.25;;;17.70;99.90;;;;;;5078978;28;20071;-85
2021/07/28 02:25:53;;;;;;;17.73;9.20;;;17.70;99.90;;;;;;5080015;28;20047;-84
2021/07/28 02:28:20;;;;;;;17.25;8.63;;;17.70;99.90;;;;;;5082122;28;20052;-84
2021/07/28 02:30:49;;;;;;;23.38;10.40;;;17.70;99.90;;;;;;5062229;28;20047;-84
2021/07/28 02:33:20;;;;;;;17.83;10.07;;;17.70;99.90;;;;;;5088031;28;20058;-85
2021/07/28 02:35:49;;;;;;;19.73;9.68;;;17.60;99.90;;;;;;5077557;28;20048;-83
2021/07/28 02:38:22;;;;;;;18.50;9.48;;;17.60;99.90;;;;;;5117806;28;20044;-85
2021/07/28 02:40:55;;;;;;;21.65;11.48;;;17.60;99.90;;;;;;5090488;28;20046;-84
2021/07/28 02:43:25;;;;;;;23.90;11.77;;;17.60;99.90;;;;;;5096229;28;20044;-84
2021/07/28 02:45:55;;;;;;;21.08;12.18;;;17.60;99.90;;;;;;5088183;28;20059;-84
2021/07/28 02:48:24;;;;;;;19.88;10.38;;;17.60;99.90;;;;;;5081967;28;20056;-84
2021/07/28 02:50:52;;;;;;;19.95;10.70;;;17.60;99.90;;;;;;5099701;28;20101;-83
2021/07/28 02:53:23;;;;;;;17.25;11.68;;;17.50;99.90;;;;;;5048155;28;20055;-85
2021/07/28 02:55:52;;;;;;;19.63;10.57;;;17.50;99.90;;;;;;5096292;28;20043;-84
2021/07/28 02:58:21;;;;;;;20.17;10.30;;;17.50;99.90;;;;;;5099560;28;20048;-84
2021/07/28 03:00:53;;;;;;;20.58;10.43;;;17.50;99.90;;;;;;5078988;28;20040;-84
2021/07/28 03:03:23;;;;;;;15.73;10.25;;;17.50;99.90;;;;;;5068654;28;20052;-83
2021/07/28 03:05:57;;;;;;;19.52;8.98;;;17.50;99.90;;;;;;5094100;28;20044;-84
2021/07/28 03:08:27;;;;;;;19.83;9.90;;;17.50;99.90;;;;;;5066638;28;20055;-83
2021/07/28 03:10:56;;;;;;;17.60;9.80;;;17.50;99.90;;;;;;5076680;28;20044;-85
2021/07/28 03:13:25;;;;;;;22.17;9.43;;;17.40;99.90;;;;;;5078138;28;20055;-84
2021/07/28 03:15:55;;;;;;;20.38;10.27;;;17.40;99.90;;;;;;5094367;28;20047;-85
2021/07/28 03:18:26;;;;;;;18.20;10.15;;;17.40;99.90;;;;;;5059637;28;20067;-84
2021/07/28 03:20:57;;;;;;;15.48;8.40;;;17.50;99.90;;;;;;5076834;28;20055;-84
2021/07/28 03:23:28;;;;;;;17.98;9.90;;;17.40;99.90;;;;;;5068084;28;20059;-84
2021/07/28 03:26:02;;;;;;;19.20;8.85;;;17.40;99.90;;;;;;5099476;28;20067;-83
2021/07/28 03:28:39;;;;;;;;;;;17.30;99.90;;;;;;5063529;28;20048;-84
2021/07/28 03:31:09;;;;;;;17.13;9.38;;;17.30;99.90;;;;;;5094689;28;19916;-83
2021/07/28 03:33:38;;;;;;;17.63;9.02;;;17.30;99.90;;;;;;5057502;28;20506;-86
2021/07/28 03:36:09;;;;;;;13.80;7.75;;;17.40;99.90;;;;;;5093452;28;20047;-86
2021/07/28 03:38:40;;;;;;;17.85;10.35;;;17.30;99.90;;;;;;5070976;28;20051;-83
2021/07/28 03:41:11;;;;;;;18.08;8.20;;;17.30;99.90;;;;;;5093647;28;20055;-84
2021/07/28 03:43:39;;;;;;;18.08;9.82;;;17.10;99.90;;;;;;5086751;28;20037;-84
2021/07/28 03:46:08;;;;;;;14.38;8.30;;;17.30;99.90;;;;;;5091135;28;20499;-86
2021/07/28 03:48:41;;;;;;;15.88;7.88;;;17.30;99.90;;;;;;5047672;28;20044;-84
2021/07/28 03:51:09;;;;;;;19.48;7.85;;;17.30;99.90;;;;;;5086204;28;20055;-83
2021/07/28 03:53:37;;;;;;;18.00;7.47;;;17.30;99.90;;;;;;5096436;28;20063;-85
2021/07/28 03:56:07;;;;;;;13.13;7.25;;;17.30;99.90;;;;;;5076664;28;20051;-85
2021/07/28 03:58:36;;;;;;;14.02;7.72;;;17.30;99.90;;;;;;5042875;28;20056;-84
2021/07/28 04:01:10;;;;;;;14.40;7.20;;;17.20;99.90;;;;;;5092617;28;20040;-84
2021/07/28 04:03:43;;;;;;;16.73;7.82;;;17.20;99.90;;;;;;5104902;28;20282;-84
2021/07/28 04:06:15;;;;;;;13.00;6.70;;;17.20;99.90;;;;;;5046014;23;20056;-84
2021/07/28 04:08:43;;;;;;;14.52;7.47;;;17.20;99.90;;;;;;5067963;28;20060;-84
2021/07/28 04:11:11;;;;;;;17.20;8.40;;;17.20;99.90;;;;;;5053420;28;20056;-83
2021/07/28 04:14:01;;;;;;;13.35;6.70;;;17.10;99.90;;;;;;5046464;28;20049;-85
2021/07/28 04:16:32;;;;;;;11.35;6.63;;;17.10;99.90;;;;;;5076732;28;20748;-84
2021/07/28 04:19:13;;;;;;;11.70;7.32;;;17.10;99.90;;;;;;5054353;28;20045;-84
2021/07/28 04:21:43;;;;;;;13.43;6.80;;;17.10;99.90;;;;;;5051404;28;20163;-84
2021/07/28 04:24:13;;;;;;;15.25;7.60;;;17.10;99.90;;;;;;5053968;28;20056;-84
2021/07/28 04:26:46;;;;;;;16.42;7.07;;;17.10;99.90;;;;;;5081573;28;20072;-83
2021/07/28 04:29:14;;;;;;;12.65;5.50;;;17.10;99.90;;;;;;5057038;28;20045;-86
2021/07/28 04:31:45;;;;;;;18.95;7.38;;;17.10;99.90;;;;;;5068636;28;20040;-84
2021/07/28 04:34:15;;;;;;;16.33;7.07;;;17.10;99.90;;;;;;5059695;28;20060;-84
2021/07/28 04:36:44;;;;;;;15.50;6.70;;;17.10;99.90;;;;;;5067698;28;20052;-86
2021/07/28 04:39:16;;;;;;;11.80;7.28;;;17.10;99.90;;;;;;5064609;28;20052;-84
2021/07/28 04:41:46;;;;;;;15.98;8.07;;;17.10;99.90;;;;;;5064898;28;20037;-85
2021/07/28 04:44:15;;;;;;;18.20;6.50;;;17.10;99.90;;;;;;5052231;28;20041;-85
2021/07/28 04:46:44;;;;;;;19.95;7.20;;;17.10;99.90;;;;;;5067808;28;20043;-84
2021/07/28 04:49:26;;;;;;;13.95;6.68;;;17.00;99.90;;;;;;5061988;28;20057;-84
2021/07/28 04:51:59;;;;;;;14.18;7.97;;;17.00;99.90;;;;;;5051213;28;20140;-85
2021/07/28 04:54:28;;;;;;;16.23;8.70;;;17.10;99.90;;;;;;5038043;28;20399;-85
2021/07/28 04:57:01;;;;;;;12.90;7.53;;;17.00;99.90;;;;;;5050135;28;20042;-85
2021/07/28 04:59:38;;;;;;;15.10;7.18;;;17.00;99.90;;;;;;5072945;28;20396;-84
2021/07/28 05:02:07;;;;;;;14.48;7.28;;;17.10;99.90;;;;;;5059381;28;20059;-84
2021/07/28 05:04:49;;;;;;;16.40;8.00;;;17.10;99.90;;;;;;5080496;28;20045;-84
2021/07/28 05:07:19;;;;;;;15.73;7.20;;;17.00;99.90;;;;;;5072902;28;20055;-85
2021/07/28 05:09:57;;;;;;;15.82;7.68;;;17.10;99.90;;;;;;5076225;28;20044;-85
2021/07/28 05:12:27;;;;;;;15.50;7.40;;;17.10;99.90;;;;;;5060661;28;20067;-85
2021/07/28 05:15:01;;;;;;;14.57;7.65;;;17.10;99.90;;;;;;5073090;28;20051;-84
2021/07/28 05:17:34;;;;;;;16.33;7.97;;;17.10;99.90;;;;;;5058133;28;20052;-84
2021/07/28 05:20:19;;;;;;;18.67;7.70;;;17.10;99.90;;;;;;5072953;28;20052;-85
2021/07/28 05:22:51;;;;;;;17.25;8.05;;;17.10;99.90;;;;;;5069904;28;20075;-84
2021/07/28 05:25:23;;;;;;;20.23;9.45;;;17.10;99.90;;;;;;5078228;28;20051;-85
2021/07/28 05:27:56;;;;;;;16.60;7.82;;;17.10;99.90;;;;;;5056326;28;20064;-85
2021/07/28 05:30:30;;;;;;;17.70;8.88;;;17.10;99.90;;;;;;5073299;28;20523;-85
2021/07/28 05:33:02;;;;;;;16.83;8.23;;;17.10;99.90;;;;;;5049397;28;20049;-84
2021/07/28 05:35:31;;;;;;;20.03;9.87;;;17.10;99.90;;;;;;5091705;28;20045;-85
2021/07/28 05:38:04;;;;;;;14.55;8.45;;;17.10;99.90;;;;;;5074905;28;20637;-85
2021/07/28 05:40:39;;;;;;;17.13;9.55;;;17.20;99.90;;;;;;5082182;28;20066;-84
2021/07/28 05:43:13;;;;;;;16.83;10.00;;;17.20;99.90;;;;;;5055357;28;20048;-84
2021/07/28 05:45:43;;;;;;;19.85;8.35;;;17.20;99.90;;;;;;5089847;28;20052;-84
2021/07/28 05:48:17;;;;;;;23.13;10.77;;;17.10;99.90;;;;;;5050631;28;20060;-84
2021/07/28 05:50:53;;;;;;;20.73;11.55;;;17.20;99.90;;;;;;5076628;28;20057;-84
2021/07/28 05:53:22;;;;;;;21.38;11.27;;;17.20;99.90;;;;;;5093940;28;20064;-84
2021/07/28 05:55:53;;;;;;;17.83;10.23;;;17.20;99.90;;;;;;5081717;28;20032;-85
2021/07/28 05:58:29;;;;;;;19.73;10.00;;;17.20;99.90;;;;;;5065983;28;20395;-85
2021/07/28 06:01:11;;;;;;;21.15;11.05;;;17.20;99.90;;;;;;5082880;28;20062;-84
2021/07/28 06:03:42;;;;;;;26.75;11.60;;;17.30;99.90;;;;;;5083669;28;20044;-84
2021/07/28 06:06:13;;;;;;;16.35;10.35;;;17.30;99.90;;;;;;5077923;28;20056;-84
2021/07/28 06:08:45;;;;;;;20.60;11.53;;;17.30;99.90;;;;;;5065100;28;20059;-84
2021/07/28 06:11:18;;;;;;;22.02;11.38;;;17.30;99.90;;;;;;5082513;28;20056;-86
2021/07/28 06:13:49;;;;;;;21.23;12.75;;;17.30;99.90;;;;;;5064562;28;20040;-84
2021/07/28 06:16:21;;;;;;;22.65;12.35;;;17.30;99.90;;;;;;5066439;28;20056;-85
2021/07/28 06:19:14;;;;;;;20.70;13.25;;;17.30;99.90;;;;;;5088981;28;20059;-85
2021/07/28 06:21:57;;;;;;;22.38;12.27;;;17.30;99.90;;;;;;5051677;28;20059;-83
2021/07/28 06:24:27;;;;;;;22.63;12.43;;;17.40;99.90;;;;;;5051071;28;20052;-84
2021/07/28 06:26:57;;;;;;;22.13;11.75;;;17.40;99.90;;;;;;5069113;28;20052;-84
2021/07/28 06:29:26;;;;;;;28.83;13.10;;;17.40;99.90;;;;;;5056740;28;20037;-84
2021/07/28 06:32:15;;;;;;;21.08;11.13;;;17.50;99.90;;;;;;5061122;28;20056;-84
2021/07/28 06:34:45;;;;;;;23.60;13.10;;;17.50;99.90;;;;;;5063024;28;20048;-84
2021/07/28 06:37:15;;;;;;;21.63;11.27;;;17.50;99.90;;;;;;5052745;28;20059;-83
2021/07/28 06:39:46;;;;;;;20.42;12.30;;;17.60;99.90;;;;;;5080566;28;20781;-83
2021/07/28 06:42:22;;;;;;;21.15;11.35;;;17.60;99.90;;;;;;5059864;28;20053;-87
2021/07/28 06:44:56;;;;;;;21.20;12.63;;;17.70;99.90;;;;;;5073617;28;20041;-88
2021/07/28 06:47:27;;;;;;;27.55;13.02;;;17.70;99.90;;;;;;5056568;28;20045;-85
2021/07/28 06:49:59;;;;;;;23.17;11.20;;;17.70;99.90;;;;;;5074788;28;20052;-88
2021/07/28 06:52:29;;;;;;;28.40;14.38;;;17.70;99.90;;;;;;5057978;28;20048;-87
2021/07/28 06:55:02;;;;;;;23.40;11.65;;;17.70;99.90;;;;;;5054232;28;20045;-85
2021/07/28 06:57:31;;;;;;;23.75;12.38;;;17.70;99.90;;;;;;5075650;28;20039;-86
2021/07/28 07:00:00;;;;;;;17.92;11.27;;;17.50;99.90;;;;;;5057088;28;20045;-89
2021/07/28 07:02:50;;;;;;;18.83;11.50;;;17.70;99.90;;;;;;5048053;28;20064;-89
2021/07/28 07:05:18;;;;;;;20.67;11.95;;;17.10;99.90;;;;;;5056739;28;20041;-87
2021/07/28 07:07:50;;;;;;;19.77;10.55;;;17.70;99.90;;;;;;5040871;28;20048;-89
2021/07/28 07:10:31;;;;;;;22.50;11.63;;;17.80;99.90;;;;;;5039193;28;20046;-89
2021/07/28 07:13:14;;;;;;;19.35;9.85;;;17.70;99.90;;;;;;5036760;28;20448;-89
2021/07/28 07:15:51;;;;;;;20.17;10.15;;;17.90;99.90;;;;;;5034076;28;20053;-89
2021/07/28 07:18:22;;;;;;;20.70;10.15;;;17.70;99.90;;;;;;5053332;28;20048;-90
2021/07/28 07:20:50;;;;;;;20.20;10.63;;;17.70;99.90;;;;;;5021337;28;20057;-90
2021/07/28 07:23:18;;;;;;;25.92;11.10;;;17.80;99.90;;;;;;5026752;28;20063;-89
2021/07/28 07:25:46;;;;;;;17.23;8.50;;;17.80;99.90;;;;;;5016352;28;20057;-89
2021/07/28 07:28:14;;;;;;;19.98;10.05;;;17.80;99.90;;;;;;5028270;28;20056;-89
2021/07/28 07:30:44;;;;;;;19.65;10.18;;;17.80;99.90;;;;;;5016281;28;20049;-88
2021/07/28 07:36:01;;;;;;;30.73;9.30;;;17.90;99.90;;;;;;5044338;28;20400;-89
2021/07/28 07:38:38;;;;;;;16.67;8.13;;;17.90;99.90;;;;;;5048364;28;20037;-88
2021/07/28 07:41:08;;;;;;;14.05;8.07;;;17.60;99.90;;;;;;5017145;28;20049;-89
2021/07/28 07:43:37;;;;;;;13.38;8.52;;;18.10;99.90;;;;;;5019576;28;20049;-89
2021/07/28 07:46:06;;;;;;;13.32;7.05;;;19.40;99.90;;;;;;5017426;28;20072;-89
2021/07/28 07:48:35;;;;;;;15.40;7.93;;;18.20;99.90;;;;;;5030620;28;20037;-88
2021/07/28 07:51:03;;;;;;;14.52;7.53;;;18.20;99.90;;;;;;5030125;28;20041;-89
2021/07/28 07:53:36;;;;;;;13.15;6.88;;;18.30;99.90;;;;;;5020079;28;20060;-90
2021/07/28 07:56:05;;;;;;;13.90;6.97;;;18.40;99.90;;;;;;5017717;28;20060;-89
2021/07/28 07:58:34;;;;;;;11.93;6.80;;;18.40;99.90;;;;;;5031280;28;20038;-89
2021/07/28 08:01:10;;;;;;;10.68;5.07;;;18.60;99.90;;;;;;5036773;28;20056;-88
2021/07/28 08:03:41;;;;;;;16.35;5.28;;;18.40;99.90;;;;;;5018373;28;20045;-87
2021/07/28 08:06:14;;;;;;;10.00;5.18;;;18.40;99.90;;;;;;5045170;28;20056;-89
2021/07/28 08:08:43;;;;;;;10.70;4.72;;;18.40;99.90;;;;;;5060616;28;20040;-88
2021/07/28 08:11:39;;;;;;;12.43;4.65;;;18.40;99.90;;;;;;5063674;28;20056;-89
2021/07/28 08:14:10;;;;;;;7.82;4.22;;;18.60;99.90;;;;;;5045792;28;20057;-89
2021/07/28 08:16:40;;;;;;;9.37;4.13;;;18.70;99.90;;;;;;5046005;28;20051;-88
2021/07/28 08:19:12;;;;;;;5.63;3.67;;;18.80;99.90;;;;;;5074645;28;20056;-88
2021/07/28 08:21:40;;;;;;;12.05;3.85;;;18.90;99.90;;;;;;5060932;28;20060;-88
2021/07/28 08:24:11;;;;;;;15.13;4.63;;;18.90;99.90;;;;;;5048722;28;20045;-88
2021/07/28 08:26:41;;;;;;;7.13;3.55;;;18.80;99.90;;;;;;5054374;28;20599;-89
2021/07/28 08:29:15;;;;;;;13.43;4.80;;;18.80;99.90;;;;;;5051932;28;20052;-88
2021/07/28 08:31:43;;;;;;;8.40;4.05;;;18.80;99.90;;;;;;5041709;28;20048;-88
2021/07/28 08:34:36;;;;;;;8.02;3.35;;;18.80;99.90;;;;;;5051385;28;20049;-90
2021/07/28 08:37:32;;;;;;;15.75;4.05;;;18.90;99.90;;;;;;5039041;28;20055;-90
2021/07/28 08:40:11;;;;;;;8.05;3.65;;;19.10;99.90;;;;;;5045084;28;20053;-91
2021/07/28 08:42:52;;;;;;;8.30;3.77;;;19.10;99.90;;;;;;5045967;28;20060;-89
2021/07/28 08:45:22;;;;;;;7.07;3.05;;;19.20;99.90;;;;;;5027850;28;20057;-89
2021/07/28 08:47:57;;;;;;;7.43;3.13;;;19.20;99.90;;;;;;5042116;28;20051;-90
2021/07/28 08:50:31;;;;;;;6.47;2.97;;;19.10;99.90;;;;;;5052099;28;20044;-88
2021/07/28 08:53:10;;;;;;;9.60;3.10;;;19.20;99.90;;;;;;5039905;28;20071;-89
2021/07/28 08:55:45;;;;;;;6.53;2.97;;;19.40;99.90;;;;;;5039130;28;20072;-89
2021/07/28 08:58:15;;;;;;;5.15;2.72;;;19.40;99.90;;;;;;5038756;28;20064;-89
2021/07/28 09:00:52;;;;;;;9.50;4.20;;;19.60;99.90;;;;;;5069034;28;20044;-88
2021/07/28 09:03:22;;;;;;;7.68;2.22;;;19.80;99.90;;;;;;5048937;28;20053;-89
2021/07/28 09:05:52;;;;;;;9.50;3.00;;;20.10;99.90;;;;;;5027209;28;20123;-89
2021/07/28 09:08:25;;;;;;;5.00;2.00;;;20.30;99.90;;;;;;5023793;28;20054;-89
2021/07/28 09:10:56;;;;;;;4.88;2.10;;;20.40;99.90;;;;;;5017486;28;20052;-89
2021/07/28 09:13:45;;;;;;;;;;;20.60;99.90;;;;;;5037153;28;20056;-88
2021/07/28 09:16:16;;;;;;;3.85;1.90;;;20.60;99.90;;;;;;5047424;28;19924;-90
2021/07/28 09:18:51;;;;;;;5.85;2.00;;;20.70;99.90;;;;;;5022294;28;20055;-89
2021/07/28 09:21:32;;;;;;;4.93;2.00;;;20.70;99.90;;;;;;5032779;28;20076;-90
2021/07/28 09:24:08;;;;;;;9.27;2.22;;;20.70;99.90;;;;;;5039592;28;20041;-88
2021/07/28 09:26:45;;;;;;;2.95;1.92;;;20.80;99.90;;;;;;5028812;28;20049;-89
2021/07/28 09:29:15;;;;;;;4.18;2.05;;;20.80;99.60;;;;;;5044383;28;20041;-89
2021/07/28 09:32:01;;;;;;;3.53;1.50;;;20.90;99.80;;;;;;5039069;28;20063;-90
2021/07/28 09:34:40;;;;;;;7.00;2.10;;;20.90;99.00;;;;;;5049096;28;20049;-90
2021/07/28 09:37:14;;;;;;;3.70;1.92;;;21.00;99.30;;;;;;5039971;28;20049;-89
2021/07/28 09:39:47;;;;;;;7.93;2.05;;;20.70;98.80;;;;;;5045745;28;20075;-90
2021/07/28 09:42:20;;;;;;;3.45;1.92;;;21.20;98.70;;;;;;5013691;28;20448;-89
2021/07/28 09:44:56;;;;;;;5.85;1.80;;;21.30;98.40;;;;;;5039230;28;20052;-89
2021/07/28 09:47:42;;;;;;;4.15;1.80;;;21.30;98.10;;;;;;5039361;28;20489;-91
2021/07/28 09:50:20;;;;;;;5.43;2.10;;;21.30;98.00;;;;;;5029720;28;20044;-90
2021/07/28 09:53:09;;;;;;;3.08;1.77;;;21.40;98.00;;;;;;5028090;28;20044;-90
2021/07/28 09:55:56;;;;;;;4.43;3.10;;;21.40;98.00;;;;;;5016793;28;20529;-91
2021/07/28 09:58:26;;;;;;;2.97;1.60;;;21.40;98.30;;;;;;5033017;28;20063;-89
2021/07/28 10:00:57;;;;;;;5.22;1.60;;;21.40;98.30;;;;;;5039088;28;20048;-90
2021/07/28 10:03:30;;;;;;;4.70;1.90;;;21.40;98.30;;;;;;5029423;28;20056;-90
2021/07/28 10:06:05;;;;;;;4.90;2.13;;;21.40;97.60;;;;;;5035682;28;20045;-89
2021/07/28 10:08:37;;;;;;;3.75;2.03;;;21.10;97.40;;;;;;5032711;28;20063;-89
2021/07/28 10:11:07;;;;;;;4.03;1.40;;;21.40;97.30;;;;;;5019124;28;20072;-89
2021/07/28 10:13:44;;;;;;;5.18;1.15;;;21.50;97.10;;;;;;5025155;28;20049;-91
2021/07/28 10:16:23;;;;;;;2.72;1.40;;;21.50;97.30;;;;;;5026599;28;20061;-89
2021/07/28 10:18:58;;;;;;;2.97;1.17;;;21.70;97.30;;;;;;5026046;28;20048;-91
2021/07/28 10:21:45;;;;;;;5.18;1.80;;;21.70;96.90;;;;;;5049639;28;20048;-90
2021/07/28 10:24:31;;;;;;;7.38;1.73;;;21.70;96.80;;;;;;5042172;28;20060;-90
2021/07/28 10:27:06;;;;;;;8.60;2.50;;;21.80;97.00;;;;;;5023739;28;20048;-91
2021/07/28 10:29:52;;;;;;;5.93;1.90;;;21.80;96.60;;;;;;5021228;28;20057;-88
2021/07/28 10:32:29;;;;;;;4.32;1.20;;;21.80;96.80;;;;;;5037036;28;20352;-89
2021/07/28 10:35:22;;;;;;;6.22;3.92;;;21.70;96.20;;;;;;5048655;28;20029;-90
2021/07/28 10:37:56;;;;;;;4.18;1.92;;;21.70;96.50;;;;;;5031066;28;20048;-89
2021/07/28 10:40:24;;;;;;;4.00;1.58;;;21.70;96.70;;;;;;5033360;28;20056;-91
2021/07/28 10:43:05;;;;;;;2.90;1.30;;;21.70;96.80;;;;;;5020896;28;20144;-90
2021/07/28 10:45:55;;;;;;;5.78;1.73;;;20.90;96.50;;;;;;5008269;28;20052;-89
2021/07/28 10:48:43;;;;;;;2.70;1.50;;;22.00;96.90;;;;;;5040862;28;20049;-89
2021/07/28 10:51:49;;;;;;;8.57;1.60;;;22.10;96.50;;;;;;5044466;28;20057;-88
2021/07/28 10:54:19;;;;;;;4.30;1.27;;;22.00;95.90;;;;;;5028513;28;20052;-89
2021/07/28 10:57:29;;;;;;;3.95;1.33;;;21.90;95.50;;;;;;5048523;28;20052;-89
2021/07/28 11:00:02;;;;;;;2.95;1.35;;;21.80;95.70;;;;;;5036941;28;20163;-89
2021/07/28 11:03:17;;;;;;;5.53;1.50;;;21.80;95.80;;;;;;5037905;28;20065;-88
2021/07/28 11:06:16;;;;;;;7.70;1.40;;;21.70;95.20;;;;;;5022058;28;20060;-90
2021/07/28 11:08:45;;;;;;;4.30;1.42;;;21.50;95.50;;;;;;5026650;28;20049;-89
2021/07/28 11:11:23;;;;;;;3.73;1.50;;;21.40;96.20;;;;;;5020792;28;20060;-88
2021/07/28 11:13:59;;;;;;;1.90;0.98;;;21.30;97.20;;;;;;5032862;28;20140;-88
2021/07/28 11:16:39;;;;;;;3.92;1.27;;;21.00;97.50;;;;;;5032609;28;20053;-88
2021/07/28 11:19:10;;;;;;;5.68;1.35;;;20.80;97.80;;;;;;5039446;28;20049;-86
2021/07/28 11:21:46;;;;;;;4.35;1.92;;;20.70;97.90;;;;;;5030588;28;20041;-90
2021/07/28 11:24:17;;;;;;;5.20;1.95;;;20.60;98.80;;;;;;5019959;28;20053;-89
2021/07/28 11:26:50;;;;;;;4.22;1.90;;;20.60;99.90;;;;;;5032198;28;20045;-89
2021/07/28 11:29:20;;;;;;;3.35;1.50;;;20.50;99.90;;;;;;5035375;28;20045;-90
2021/07/28 11:31:55;;;;;;;8.85;2.58;;;20.80;99.90;;;;;;5040731;28;20055;-91
2021/07/28 11:35:01;;;;;;;7.65;2.20;;;20.50;99.90;;;;;;5016101;28;20069;-90
2021/07/28 11:37:33;;;;;;;5.38;2.13;;;20.60;99.90;;;;;;5033214;28;20041;-90
2021/07/28 11:40:01;;;;;;;4.53;1.60;;;20.70;99.90;;;;;;5033515;28;20041;-88
2021/07/28 11:42:34;;;;;;;8.80;2.33;;;20.80;99.90;;;;;;5017117;28;20048;-89
2021/07/28 11:45:04;;;;;;;6.55;2.38;;;21.00;99.90;;;;;;5019307;28;20068;-89
2021/07/28 11:47:36;;;;;;;10.18;2.20;;;21.30;99.90;;;;;;5032254;28;20041;-90
2021/07/28 11:50:11;;;;;;;5.35;2.25;;;21.60;99.90;;;;;;5029177;28;20052;-91
2021/07/28 11:52:48;;;;;;;8.02;2.22;;;21.80;99.90;;;;;;5034287;28;20052;-88
2021/07/28 11:55:24;;;;;;;5.38;2.42;;;21.90;99.30;;;;;;5036645;28;20054;-88
2021/07/28 11:57:52;;;;;;;10.65;2.38;;;21.90;98.50;;;;;;5036553;28;20045;-91
2021/07/28 12:00:34;;;;;;;7.00;2.40;;;21.80;98.30;;;;;;5045408;28;20033;-88
2021/07/28 12:03:30;;;;;;;5.82;2.63;;;22.00;98.60;;;;;;5045165;28;20484;-89
2021/07/28 12:06:06;;;;;;;6.55;2.28;;;21.20;99.10;;;;;;5073312;28;20045;-90
2021/07/28 12:08:37;;;;;;;6.45;2.30;;;20.80;99.90;;;;;;5059433;28;20048;-89
2021/07/28 12:11:13;;;;;;;12.60;2.83;;;20.30;99.90;;;;;;5059912;28;20048;-89
2021/07/28 12:13:48;;;;;;;14.15;3.25;;;19.60;99.90;;;;;;5046525;28;20055;-89
2021/07/28 12:16:40;;;;;;;8.95;2.80;;;19.20;99.90;;;;;;5040777;28;20045;-88
2021/07/28 12:19:16;;;;;;;8.70;3.05;;;18.90;99.90;;;;;;5085273;28;20040;-89
2021/07/28 12:21:54;;;;;;;12.18;2.92;;;18.70;99.90;;;;;;5057449;28;20064;-90
2021/07/28 12:24:37;;;;;;;8.55;3.13;;;18.70;99.90;;;;;;5052417;28;20056;-90
2021/07/28 12:27:30;;;;;;;11.63;2.90;;;18.90;99.90;;;;;;5039682;28;20048;-89
2021/07/28 12:30:17;;;;;;;7.05;2.55;;;19.20;99.90;;;;;;5052468;28;20040;-89
2021/07/28 12:32:52;;;;;;;7.18;2.97;;;19.50;99.90;;;;;;5061191;28;20047;-90
2021/07/28 12:35:25;;;;;;;9.35;2.72;;;19.70;99.90;;;;;;5081617;28;20218;-89
2021/07/28 12:38:14;;;;;;;5.22;2.47;;;19.80;99.90;;;;;;5031600;28;20053;-89
2021/07/28 12:40:58;;;;;;;8.10;2.42;;;20.10;99.90;;;;;;5070788;28;20048;-88
2021/07/28 12:43:32;;;;;;;7.28;2.40;;;20.10;99.90;;;;;;5051312;28;20363;-89
2021/07/28 12:46:12;;;;;;;8.43;2.45;;;20.10;99.90;;;;;;5096912;28;20040;-88
2021/07/28 12:48:52;;;;;;;8.25;2.67;;;20.30;99.90;;;;;;5065717;28;20056;-88
2021/07/28 12:51:22;;;;;;;6.43;2.55;;;19.00;99.90;;;;;;5038972;28;20048;-89
2021/07/28 12:53:50;;;;;;;13.30;2.40;;;20.20;99.90;;;;;;5072396;28;20049;-88
2021/07/28 12:56:18;;;;;;;12.02;2.60;;;20.30;99.90;;;;;;5041035;28;20087;-89
2021/07/28 12:58:47;;;;;;;7.55;2.60;;;20.90;99.90;;;;;;5077880;28;20452;-87
2021/07/28 13:01:17;;;;;;;5.18;2.20;;;20.60;99.90;;;;;;5061955;28;20045;-88
2021/07/28 13:03:53;;;;;;;;;;;19.90;99.90;;;;;;5052653;28;20058;-88
2021/07/28 13:06:24;;;;;;;13.23;2.60;;;20.70;99.90;;;;;;5044040;28;19924;-87
2021/07/28 13:09:06;;;;;;;5.57;2.20;;;20.70;99.90;;;;;;5028526;28;20053;-88
2021/07/28 13:11:34;;;;;;;8.80;1.80;;;20.70;99.90;;;;;;5048897;28;20044;-88
2021/07/28 13:14:03;;;;;;;9.15;1.98;;;20.70;99.90;;;;;;5017122;28;20695;-88
2021/07/28 13:16:32;;;;;;;7.13;2.45;;;21.10;99.80;;;;;;5062195;28;20057;-89
2021/07/28 13:19:03;;;;;;;12.88;2.63;;;20.90;99.50;;;;;;5061790;28;20063;-88
2021/07/28 13:21:33;;;;;;;7.68;2.83;;;20.90;99.30;;;;;;5059606;28;20049;-88
2021/07/28 13:24:02;;;;;;;7.90;2.30;;;20.90;99.40;;;;;;5050409;28;20203;-89